createdAt,value
2023-01-23T00:00:01.391Z,2.1
2023-01-23T00:10:01.371Z,2.2
2023-01-23T00:20:00.522Z,2.2
2023-01-23T00:30:00.908Z,2.2
2023-01-23T00:40:00.842Z,2.2
2023-01-23T00:50:00.879Z,2.1
2023-01-23T01:00:00.854Z,2.1
2023-01-23T01:10:01.400Z,2.0
2023-01-23T01:20:01.053Z,2.0
2023-01-23T01:30:01.323Z,2.0
2023-01-23T01:40:01.251Z,1.9
2023-01-23T01:50:01.407Z,2.0
2023-01-23T02:00:00.842Z,2.1
2023-01-23T02:20:01.324Z,2.1
2023-01-23T02:40:01.535Z,2.1
2023-01-23T02:50:01.468Z,2.0
2023-01-23T03:00:01.316Z,2.1
2023-01-23T03:10:01.654Z,2.3
2023-01-23T03:20:01.937Z,2.4
2023-01-23T03:30:01.193Z,2.2
2023-01-23T03:40:02.047Z,2.0
2023-01-23T04:00:00.862Z,2.2
2023-01-23T04:10:01.148Z,2.1
2023-01-23T04:20:00.816Z,2.2
2023-01-23T04:30:00.891Z,2.3
2023-01-23T04:40:01.039Z,2.1
2023-01-23T04:50:01.607Z,2.2
2023-01-23T05:00:00.861Z,2.2
2023-01-23T05:10:01.228Z,2.2
2023-01-23T05:20:01.034Z,2.2
2023-01-23T05:30:00.772Z,2.1
2023-01-23T05:40:01.079Z,2.2
2023-01-23T05:50:02.218Z,2.0
2023-01-23T06:00:01.506Z,2.1
2023-01-23T06:20:00.905Z,2.2
2023-01-23T06:30:01.397Z,2.3
2023-01-23T06:40:01.349Z,2.1
2023-01-23T06:50:01.219Z,2.3
2023-01-23T07:00:00.531Z,2.3
2023-01-23T07:20:01.064Z,2.2
2023-01-23T07:30:00.977Z,2.2
2023-01-23T07:40:01.047Z,2.2
2023-01-23T07:50:01.081Z,2.0
2023-01-23T08:00:00.820Z,2.3
2023-01-23T08:20:01.467Z,2.0
2023-01-23T08:30:00.940Z,2.0
2023-01-23T08:40:01.191Z,2.2
2023-01-23T08:50:01.203Z,2.6
2023-01-23T09:00:00.830Z,2.3
2023-01-23T09:10:01.014Z,2.2
2023-01-23T09:20:01.306Z,2.4
2023-01-23T09:30:00.948Z,2.4
2023-01-23T09:40:00.825Z,2.5
2023-01-23T10:00:01.234Z,3.0
2023-01-23T10:10:01.193Z,3.3
2023-01-23T10:20:00.802Z,2.9
2023-01-23T10:40:00.899Z,2.8
2023-01-23T10:50:00.905Z,2.9
2023-01-23T11:00:01.112Z,3.1
2023-01-23T11:10:00.521Z,3.1
2023-01-23T11:30:02.678Z,2.7
2023-01-23T11:50:02.355Z,2.8
2023-01-23T12:10:01.140Z,2.7
2023-01-23T12:20:01.185Z,2.8
2023-01-23T12:30:01.619Z,2.9
2023-01-23T12:50:00.867Z,2.8
2023-01-23T13:00:02.708Z,2.8
2023-01-23T13:10:00.837Z,2.8
2023-01-23T13:30:01.092Z,2.9
2023-01-23T13:40:06.131Z,3.1
2023-01-23T13:50:01.014Z,3.0
2023-01-23T14:00:01.557Z,2.9
2023-01-23T14:10:01.013Z,3.1
2023-01-23T14:20:00.512Z,3.0
2023-01-23T14:30:01.181Z,3.0
2023-01-23T14:40:06.834Z,3.3
2023-01-23T14:50:01.396Z,2.8
2023-01-23T15:00:00.819Z,2.9
2023-01-23T15:20:01.050Z,2.8
2023-01-23T15:30:00.941Z,2.6
2023-01-23T15:40:01.241Z,2.5
2023-01-23T15:50:01.197Z,2.4
2023-01-23T16:00:03.393Z,2.5
2023-01-23T16:10:02.043Z,2.4
2023-01-23T16:20:01.255Z,2.3
2023-01-23T16:30:01.210Z,2.2
2023-01-23T16:40:02.164Z,2.2
2023-01-23T16:50:02.528Z,2.1
2023-01-23T17:00:02.301Z,2.2
2023-01-23T17:20:01.016Z,2.2
2023-01-23T17:30:02.116Z,2.2
2023-01-23T17:40:01.878Z,2.1
2023-01-23T17:50:02.965Z,2.2
2023-01-23T18:00:01.988Z,2.2
2023-01-23T18:10:01.090Z,2.1
2023-01-23T18:20:01.030Z,2.2
2023-01-23T18:30:02.956Z,2.0
2023-01-23T18:40:01.245Z,2.1
2023-01-23T19:00:02.408Z,2.1
2023-01-23T19:10:01.209Z,2.0
2023-01-23T19:20:01.083Z,2.1
2023-01-23T19:30:01.344Z,2.0
2023-01-23T19:40:01.019Z,2.0
2023-01-23T19:50:01.285Z,2.1
2023-01-23T20:00:00.521Z,2.1
2023-01-23T20:20:01.453Z,2.1
2023-01-23T20:30:02.016Z,1.9
2023-01-23T20:40:01.015Z,2.0
2023-01-23T20:50:01.250Z,2.0
2023-01-23T21:00:03.215Z,2.0
2023-01-23T21:10:02.480Z,2.0
2023-01-23T21:20:00.527Z,1.8
2023-01-23T21:40:01.043Z,1.8
2023-01-23T22:00:01.327Z,1.7
2023-01-23T22:10:01.621Z,1.7
2023-01-23T22:20:01.305Z,1.6
2023-01-23T22:40:01.045Z,1.6
2023-01-23T22:50:01.090Z,1.5
2023-01-23T23:00:01.027Z,1.6
2023-01-23T23:10:01.206Z,1.5
2023-01-23T23:20:00.994Z,1.4
2023-01-23T23:30:01.218Z,1.5
2023-01-23T23:40:01.069Z,1.4
2023-01-23T23:50:01.609Z,1.2
